sensor_id;sensor_type;location;lat;lon;timestamp;pressure;altitude;pressure_sealevel;temperature;humidity
4022;BME280;2025;48.260;16.432;2023-04-27T00:01:32;100176.41;;;4.43;73.21
4022;BME280;2025;48.260;16.432;2023-04-27T00:03:59;100177.69;;;4.49;73.30
4022;BME280;2025;48.260;16.432;2023-04-27T00:06:27;100175.09;;;4.49;73.41
4022;BME280;2025;48.260;16.432;2023-04-27T00:08:54;100172.38;;;4.51;73.33
4022;BME280;2025;48.260;16.432;2023-04-27T00:11:21;100163.94;;;4.58;73.57
4022;BME280;2025;48.260;16.432;2023-04-27T00:13:48;100170.47;;;4.64;74.08
4022;BME280;2025;48.260;16.432;2023-04-27T00:16:15;100165.38;;;4.62;73.68
4022;BME280;2025;48.260;16.432;2023-04-27T00:18:42;100163.13;;;4.58;74.48
4022;BME280;2025;48.260;16.432;2023-04-27T00:21:09;100164.31;;;4.54;75.13
4022;BME280;2025;48.260;16.432;2023-04-27T00:23:38;100160.16;;;4.51;75.37
4022;BME280;2025;48.260;16.432;2023-04-27T00:26:05;100160.31;;;4.38;75.58
4022;BME280;2025;48.260;16.432;2023-04-27T00:28:32;100169.41;;;4.44;74.46
4022;BME280;2025;48.260;16.432;2023-04-27T00:30:59;100165.63;;;4.48;74.11
4022;BME280;2025;48.260;16.432;2023-04-27T00:33:28;100163.00;;;4.48;74.44
4022;BME280;2025;48.260;16.432;2023-04-27T00:35:58;100169.78;;;4.51;74.03
4022;BME280;2025;48.260;16.432;2023-04-27T00:38:26;100163.59;;;4.52;74.14
4022;BME280;2025;48.260;16.432;2023-04-27T00:41:00;100156.47;;;4.54;74.32
4022;BME280;2025;48.260;16.432;2023-04-27T00:43:27;100159.78;;;4.56;74.51
4022;BME280;2025;48.260;16.432;2023-04-27T00:45:55;100159.69;;;4.57;74.54
4022;BME280;2025;48.260;16.432;2023-04-27T00:48:22;100150.91;;;4.58;74.34
4022;BME280;2025;48.260;16.432;2023-04-27T00:50:49;100154.22;;;4.60;73.71
4022;BME280;2025;48.260;16.432;2023-04-27T00:53:16;100154.22;;;4.60;73.43
4022;BME280;2025;48.260;16.432;2023-04-27T00:55:44;100155.41;;;4.56;73.27
4022;BME280;2025;48.260;16.432;2023-04-27T00:58:12;100149.97;;;4.59;73.03
4022;BME280;2025;48.260;16.432;2023-04-27T01:00:39;100146.41;;;4.49;75.18
4022;BME280;2025;48.260;16.432;2023-04-27T01:03:06;100143.69;;;4.39;74.61
4022;BME280;2025;48.260;16.432;2023-04-27T01:05:35;100149.03;;;4.38;74.16
4022;BME280;2025;48.260;16.432;2023-04-27T01:08:02;100150.09;;;4.35;73.79
4022;BME280;2025;48.260;16.432;2023-04-27T01:10:29;100148.81;;;4.30;73.97
4022;BME280;2025;48.260;16.432;2023-04-27T01:12:56;100141.22;;;4.27;74.27
4022;BME280;2025;48.260;16.432;2023-04-27T01:15:24;100147.63;;;4.22;74.29
4022;BME280;2025;48.260;16.432;2023-04-27T01:17:57;100150.44;;;4.19;75.33
4022;BME280;2025;48.260;16.432;2023-04-27T01:20:24;100145.72;;;4.13;75.63
4022;BME280;2025;48.260;16.432;2023-04-27T01:22:52;100156.84;;;4.04;74.74
4022;BME280;2025;48.260;16.432;2023-04-27T01:25:21;100146.06;;;3.97;74.10
4022;BME280;2025;48.260;16.432;2023-04-27T01:27:47;100157.66;;;3.93;74.42
4022;BME280;2025;48.260;16.432;2023-04-27T01:30:15;100158.84;;;3.89;73.38
4022;BME280;2025;48.260;16.432;2023-04-27T01:32:42;100157.91;;;3.90;73.11
4022;BME280;2025;48.260;16.432;2023-04-27T01:35:09;100163.59;;;3.95;73.46
4022;BME280;2025;48.260;16.432;2023-04-27T01:37:36;100162.88;;;3.93;73.53
4022;BME280;2025;48.260;16.432;2023-04-27T01:40:03;100164.19;;;3.88;73.75
4022;BME280;2025;48.260;16.432;2023-04-27T01:42:33;100167.38;;;3.80;73.43
4022;BME280;2025;48.260;16.432;2023-04-27T01:45:00;100167.47;;;3.78;73.52
4022;BME280;2025;48.260;16.432;2023-04-27T01:47:28;100167.47;;;3.78;74.13
4022;BME280;2025;48.260;16.432;2023-04-27T01:49:55;100166.16;;;3.73;74.43
4022;BME280;2025;48.260;16.432;2023-04-27T01:52:22;100170.88;;;3.68;74.29
4022;BME280;2025;48.260;16.432;2023-04-27T01:54:49;100173.97;;;3.62;74.57
4022;BME280;2025;48.260;16.432;2023-04-27T01:57:16;100167.41;;;3.56;74.65
4022;BME280;2025;48.260;16.432;2023-04-27T01:59:45;100165.50;;;3.47;74.49
4022;BME280;2025;48.260;16.432;2023-04-27T02:02:12;100167.59;;;3.42;74.40
4022;BME280;2025;48.260;16.432;2023-04-27T02:04:39;100168.03;;;3.35;74.09
4022;BME280;2025;48.260;16.432;2023-04-27T02:07:07;100164.84;;;3.32;74.30
4022;BME280;2025;48.260;16.432;2023-04-27T02:09:34;100177.38;;;3.27;74.42
4022;BME280;2025;48.260;16.432;2023-04-27T02:12:01;100167.31;;;3.22;74.03
4022;BME280;2025;48.260;16.432;2023-04-27T02:14:28;100161.00;;;3.13;74.26
4022;BME280;2025;48.260;16.432;2023-04-27T02:16:57;100171.84;;;3.07;74.43
4022;BME280;2025;48.260;16.432;2023-04-27T02:19:24;100176.66;;;3.01;74.86
4022;BME280;2025;48.260;16.432;2023-04-27T02:21:51;100186.06;;;2.90;74.71
4022;BME280;2025;48.260;16.432;2023-04-27T02:24:18;100182.13;;;2.85;74.91
4022;BME280;2025;48.260;16.432;2023-04-27T02:26:45;100186.53;;;2.71;75.52
4022;BME280;2025;48.260;16.432;2023-04-27T02:29:11;100181.97;;;2.62;75.89
4022;BME280;2025;48.260;16.432;2023-04-27T02:31:39;100183.97;;;2.59;75.92
4022;BME280;2025;48.260;16.432;2023-04-27T02:34:07;100179.75;;;2.45;76.09
4022;BME280;2025;48.260;16.432;2023-04-27T02:36:34;100179.84;;;2.43;76.24
4022;BME280;2025;48.260;16.432;2023-04-27T02:39:01;100180.38;;;2.36;76.60
4022;BME280;2025;48.260;16.432;2023-04-27T02:41:30;100183.28;;;2.31;76.44
4022;BME280;2025;48.260;16.432;2023-04-27T02:43:57;100177.56;;;2.26;76.46
4022;BME280;2025;48.260;16.432;2023-04-27T02:46:24;100181.44;;;2.20;76.84
4022;BME280;2025;48.260;16.432;2023-04-27T02:48:52;100186.53;;;2.09;77.20
4022;BME280;2025;48.260;16.432;2023-04-27T02:51:20;100181.09;;;2.12;77.13
4022;BME280;2025;48.260;16.432;2023-04-27T02:53:47;100189.72;;;2.25;77.46
4022;BME280;2025;48.260;16.432;2023-04-27T02:56:14;100186.31;;;2.12;77.85
4022;BME280;2025;48.260;16.432;2023-04-27T02:58:41;100186.94;;;2.03;78.10
4022;BME280;2025;48.260;16.432;2023-04-27T03:01:09;100184.97;;;1.94;78.36
4022;BME280;2025;48.260;16.432;2023-04-27T03:03:36;100193.78;;;1.91;78.85
4022;BME280;2025;48.260;16.432;2023-04-27T03:06:03;100194.94;;;1.87;78.87
4022;BME280;2025;48.260;16.432;2023-04-27T03:08:32;100190.25;;;1.92;78.63
4022;BME280;2025;48.260;16.432;2023-04-27T03:10:59;100187.78;;;2.03;78.62
4022;BME280;2025;48.260;16.432;2023-04-27T03:13:26;100188.81;;;2.01;78.84
4022;BME280;2025;48.260;16.432;2023-04-27T03:15:53;100199.31;;;1.99;79.07
4022;BME280;2025;48.260;16.432;2023-04-27T03:18:20;100190.88;;;1.83;80.00
4022;BME280;2025;48.260;16.432;2023-04-27T03:20:47;100198.66;;;1.83;79.64
4022;BME280;2025;48.260;16.432;2023-04-27T03:23:14;100195.13;;;1.84;79.36
4022;BME280;2025;48.260;16.432;2023-04-27T03:25:42;100200.31;;;1.84;79.46
4022;BME280;2025;48.260;16.432;2023-04-27T03:28:09;100193.25;;;1.86;79.30
4022;BME280;2025;48.260;16.432;2023-04-27T03:30:38;100193.25;;;1.86;79.35
4022;BME280;2025;48.260;16.432;2023-04-27T03:33:05;100202.91;;;1.84;79.29
4022;BME280;2025;48.260;16.432;2023-04-27T03:35:32;100205.81;;;1.79;79.58
4022;BME280;2025;48.260;16.432;2023-04-27T03:37:59;100195.66;;;1.76;80.27
4022;BME280;2025;48.260;16.432;2023-04-27T03:40:26;100201.66;;;1.77;79.92
4022;BME280;2025;48.260;16.432;2023-04-27T03:42:54;100197.31;;;1.77;79.98
4022;BME280;2025;48.260;16.432;2023-04-27T03:45:21;100200.94;;;1.75;80.18
4022;BME280;2025;48.260;16.432;2023-04-27T03:47:49;100208.94;;;1.72;80.55
4022;BME280;2025;48.260;16.432;2023-04-27T03:50:16;100206.56;;;1.68;80.58
4022;BME280;2025;48.260;16.432;2023-04-27T03:52:43;100213.59;;;1.66;80.36
4022;BME280;2025;48.260;16.432;2023-04-27T03:55:10;100212.88;;;1.64;80.81
4022;BME280;2025;48.260;16.432;2023-04-27T03:57:37;100209.53;;;1.62;80.70
4022;BME280;2025;48.260;16.432;2023-04-27T04:00:07;100219.00;;;1.63;80.97
4022;BME280;2025;48.260;16.432;2023-04-27T04:02:36;100216.81;;;1.70;80.81
4022;BME280;2025;48.260;16.432;2023-04-27T04:05:03;100219.09;;;1.75;81.08
4022;BME280;2025;48.260;16.432;2023-04-27T04:07:30;100229.94;;;1.81;81.22
4022;BME280;2025;48.260;16.432;2023-04-27T04:09:57;100229.53;;;1.87;81.51
4022;BME280;2025;48.260;16.432;2023-04-27T04:12:24;100227.53;;;1.91;81.73
4022;BME280;2025;48.260;16.432;2023-04-27T04:14:51;100224.47;;;1.99;81.95
4022;BME280;2025;48.260;16.432;2023-04-27T04:17:19;100225.41;;;2.10;82.11
4022;BME280;2025;48.260;16.432;2023-04-27T04:19:46;100225.06;;;2.28;81.30
4022;BME280;2025;48.260;16.432;2023-04-27T04:22:13;100219.69;;;2.31;82.23
4022;BME280;2025;48.260;16.432;2023-04-27T04:24:40;100219.25;;;2.37;81.88
4022;BME280;2025;48.260;16.432;2023-04-27T04:27:08;100223.22;;;2.43;81.79
4022;BME280;2025;48.260;16.432;2023-04-27T04:29:35;100226.22;;;2.49;82.02
4022;BME280;2025;48.260;16.432;2023-04-27T04:32:03;100227.34;;;2.58;81.37
4022;BME280;2025;48.260;16.432;2023-04-27T04:34:33;100230.03;;;2.69;81.98
4022;BME280;2025;48.260;16.432;2023-04-27T04:37:00;100229.38;;;2.79;81.98
4022;BME280;2025;48.260;16.432;2023-04-27T04:39:29;100238.81;;;2.92;81.39
4022;BME280;2025;48.260;16.432;2023-04-27T04:41:56;100230.88;;;3.07;81.12
4022;BME280;2025;48.260;16.432;2023-04-27T04:44:23;100231.53;;;3.22;81.12
4022;BME280;2025;48.260;16.432;2023-04-27T04:46:50;100234.50;;;3.41;80.96
4022;BME280;2025;48.260;16.432;2023-04-27T04:49:17;100231.59;;;3.57;80.55
4022;BME280;2025;48.260;16.432;2023-04-27T04:51:45;100235.44;;;3.75;80.10
4022;BME280;2025;48.260;16.432;2023-04-27T04:54:12;100227.81;;;3.96;79.31
4022;BME280;2025;48.260;16.432;2023-04-27T04:56:39;100230.78;;;4.14;80.60
4022;BME280;2025;48.260;16.432;2023-04-27T04:59:06;100232.81;;;4.33;78.99
4022;BME280;2025;48.260;16.432;2023-04-27T05:01:33;100236.06;;;4.59;78.63
4022;BME280;2025;48.260;16.432;2023-04-27T05:04:01;100236.47;;;4.87;77.27
4022;BME280;2025;48.260;16.432;2023-04-27T05:06:28;100241.19;;;5.16;76.48
4022;BME280;2025;48.260;16.432;2023-04-27T05:08:56;100243.50;;;5.41;74.64
4022;BME280;2025;48.260;16.432;2023-04-27T05:11:23;100238.75;;;5.67;68.81
4022;BME280;2025;48.260;16.432;2023-04-27T05:13:50;100237.47;;;5.94;69.42
4022;BME280;2025;48.260;16.432;2023-04-27T05:16:17;100236.47;;;6.06;66.53
4022;BME280;2025;48.260;16.432;2023-04-27T05:18:44;100228.91;;;6.34;67.41
4022;BME280;2025;48.260;16.432;2023-04-27T05:21:14;100234.34;;;6.52;68.27
4022;BME280;2025;48.260;16.432;2023-04-27T05:23:42;100237.78;;;6.83;63.01
4022;BME280;2025;48.260;16.432;2023-04-27T05:26:14;100233.28;;;7.05;61.51
4022;BME280;2025;48.260;16.432;2023-04-27T05:28:41;100245.16;;;7.28;61.36
4022;BME280;2025;48.260;16.432;2023-04-27T05:31:08;100244.47;;;7.46;62.55
4022;BME280;2025;48.260;16.432;2023-04-27T05:33:36;100238.28;;;7.66;58.32
4022;BME280;2025;48.260;16.432;2023-04-27T05:36:04;100230.25;;;7.87;58.41
4022;BME280;2025;48.260;16.432;2023-04-27T05:38:31;100231.75;;;7.99;57.72
4022;BME280;2025;48.260;16.432;2023-04-27T05:41:03;100240.59;;;7.98;57.90
4022;BME280;2025;48.260;16.432;2023-04-27T05:43:35;100243.91;;;8.10;53.01
4022;BME280;2025;48.260;16.432;2023-04-27T05:46:03;100242.94;;;8.11;53.43
4022;BME280;2025;48.260;16.432;2023-04-27T05:48:30;100250.66;;;8.13;49.66
4022;BME280;2025;48.260;16.432;2023-04-27T05:51:01;100245.97;;;7.97;51.73
4022;BME280;2025;48.260;16.432;2023-04-27T05:53:29;100248.91;;;7.94;51.14
4022;BME280;2025;48.260;16.432;2023-04-27T05:55:56;100256.50;;;8.07;52.72
4022;BME280;2025;48.260;16.432;2023-04-27T05:58:24;100254.63;;;8.27;53.65
4022;BME280;2025;48.260;16.432;2023-04-27T06:00:52;100259.06;;;8.26;52.75
4022;BME280;2025;48.260;16.432;2023-04-27T06:03:19;100254.28;;;8.59;52.91
4022;BME280;2025;48.260;16.432;2023-04-27T06:05:52;100259.63;;;8.67;54.83
4022;BME280;2025;48.260;16.432;2023-04-27T06:08:19;100262.94;;;8.79;49.60
4022;BME280;2025;48.260;16.432;2023-04-27T06:10:45;100264.78;;;8.96;51.28
4022;BME280;2025;48.260;16.432;2023-04-27T06:13:12;100271.81;;;9.23;48.32
4022;BME280;2025;48.260;16.432;2023-04-27T06:15:39;100272.06;;;9.30;46.72
4022;BME280;2025;48.260;16.432;2023-04-27T06:18:08;100269.34;;;9.40;49.53
4022;BME280;2025;48.260;16.432;2023-04-27T06:20:35;100271.63;;;9.35;50.36
4022;BME280;2025;48.260;16.432;2023-04-27T06:23:02;100268.06;;;9.62;49.03
4022;BME280;2025;48.260;16.432;2023-04-27T06:25:29;100271.63;;;9.70;49.90
4022;BME280;2025;48.260;16.432;2023-04-27T06:27:56;100272.06;;;9.66;47.16
4022;BME280;2025;48.260;16.432;2023-04-27T06:30:24;100269.75;;;9.63;46.36
4022;BME280;2025;48.260;16.432;2023-04-27T06:32:51;100273.63;;;9.41;46.07
4022;BME280;2025;48.260;16.432;2023-04-27T06:35:19;100272.00;;;9.40;45.55
4022;BME280;2025;48.260;16.432;2023-04-27T06:37:46;100286.31;;;9.45;47.38
4022;BME280;2025;48.260;16.432;2023-04-27T06:40:13;100281.44;;;9.50;47.04
4022;BME280;2025;48.260;16.432;2023-04-27T06:42:40;100285.00;;;9.59;44.53
4022;BME280;2025;48.260;16.432;2023-04-27T06:45:07;100287.63;;;9.59;45.63
4022;BME280;2025;48.260;16.432;2023-04-27T06:47:35;100283.56;;;9.47;45.59
4022;BME280;2025;48.260;16.432;2023-04-27T06:50:02;100282.13;;;9.53;50.78
4022;BME280;2025;48.260;16.432;2023-04-27T06:52:32;100282.97;;;9.71;48.29
4022;BME280;2025;48.260;16.432;2023-04-27T06:54:59;100287.47;;;9.79;46.00
4022;BME280;2025;48.260;16.432;2023-04-27T06:57:26;100292.13;;;9.85;49.22
4022;BME280;2025;48.260;16.432;2023-04-27T06:59:53;100286.63;;;9.96;44.30
4022;BME280;2025;48.260;16.432;2023-04-27T07:02:20;100278.66;;;9.88;45.21
4022;BME280;2025;48.260;16.432;2023-04-27T07:04:47;100269.41;;;10.02;44.52
4022;BME280;2025;48.260;16.432;2023-04-27T07:07:14;100267.19;;;9.89;44.66
4022;BME280;2025;48.260;16.432;2023-04-27T07:09:42;100273.59;;;10.12;44.07
4022;BME280;2025;48.260;16.432;2023-04-27T07:12:09;100273.34;;;10.24;43.68
4022;BME280;2025;48.260;16.432;2023-04-27T07:14:36;100268.22;;;10.22;43.55
4022;BME280;2025;48.260;16.432;2023-04-27T07:17:03;100260.63;;;10.37;43.17
4022;BME280;2025;48.260;16.432;2023-04-27T07:19:31;100268.91;;;10.42;40.86
4022;BME280;2025;48.260;16.432;2023-04-27T07:21:58;100270.81;;;10.14;43.11
4022;BME280;2025;48.260;16.432;2023-04-27T07:24:24;100273.53;;;10.04;45.15
4022;BME280;2025;48.260;16.432;2023-04-27T07:26:53;100269.81;;;10.33;44.43
4022;BME280;2025;48.260;16.432;2023-04-27T07:29:22;100266.84;;;10.62;42.74
4022;BME280;2025;48.260;16.432;2023-04-27T07:31:52;100262.31;;;10.72;41.28
4022;BME280;2025;48.260;16.432;2023-04-27T07:34:20;100259.69;;;10.72;42.94
4022;BME280;2025;48.260;16.432;2023-04-27T07:36:47;100265.03;;;10.97;39.96
4022;BME280;2025;48.260;16.432;2023-04-27T07:39:14;100267.47;;;10.90;39.11
4022;BME280;2025;48.260;16.432;2023-04-27T07:41:41;100264.47;;;10.77;39.58
4022;BME280;2025;48.260;16.432;2023-04-27T07:44:09;100263.47;;;10.78;39.73
4022;BME280;2025;48.260;16.432;2023-04-27T07:46:36;100263.94;;;10.73;39.94
4022;BME280;2025;48.260;16.432;2023-04-27T07:49:03;100264.00;;;10.82;42.16
4022;BME280;2025;48.260;16.432;2023-04-27T07:51:30;100261.44;;;11.06;39.23
4022;BME280;2025;48.260;16.432;2023-04-27T07:53:59;100264.97;;;11.39;42.15
4022;BME280;2025;48.260;16.432;2023-04-27T07:56:26;100269.81;;;11.02;40.67
4022;BME280;2025;48.260;16.432;2023-04-27T07:58:53;100260.28;;;11.09;40.54
4022;BME280;2025;48.260;16.432;2023-04-27T08:01:22;100271.25;;;11.38;36.78
4022;BME280;2025;48.260;16.432;2023-04-27T08:03:48;100264.69;;;11.59;38.65
4022;BME280;2025;48.260;16.432;2023-04-27T08:06:16;100272.94;;;11.64;35.77
4022;BME280;2025;48.260;16.432;2023-04-27T08:08:43;100270.28;;;11.72;37.00
4022;BME280;2025;48.260;16.432;2023-04-27T08:11:11;100277.56;;;11.70;32.65
4022;BME280;2025;48.260;16.432;2023-04-27T08:13:38;100268.66;;;11.71;31.60
4022;BME280;2025;48.260;16.432;2023-04-27T08:16:05;100273.72;;;11.48;36.23
4022;BME280;2025;48.260;16.432;2023-04-27T08:18:33;100273.25;;;11.69;32.92
4022;BME280;2025;48.260;16.432;2023-04-27T08:21:00;100267.19;;;11.85;31.89
4022;BME280;2025;48.260;16.432;2023-04-27T08:23:29;100269.94;;;11.43;33.62
4022;BME280;2025;48.260;16.432;2023-04-27T08:25:57;100280.00;;;11.47;34.16
4022;BME280;2025;48.260;16.432;2023-04-27T08:28:24;100273.63;;;11.82;34.65
4022;BME280;2025;48.260;16.432;2023-04-27T08:30:51;100283.19;;;12.00;37.56
4022;BME280;2025;48.260;16.432;2023-04-27T08:33:18;100273.94;;;12.20;33.19
4022;BME280;2025;48.260;16.432;2023-04-27T08:35:46;100281.56;;;11.99;33.67
4022;BME280;2025;48.260;16.432;2023-04-27T08:38:13;100276.69;;;11.45;33.73
4022;BME280;2025;48.260;16.432;2023-04-27T08:40:43;100278.31;;;11.30;34.44
4022;BME280;2025;48.260;16.432;2023-04-27T08:43:10;100274.72;;;11.39;38.54
4022;BME280;2025;48.260;16.432;2023-04-27T08:45:38;100278.53;;;11.53;35.04
4022;BME280;2025;48.260;16.432;2023-04-27T08:48:13;100283.16;;;11.84;36.85
4022;BME280;2025;48.260;16.432;2023-04-27T08:50:42;100282.53;;;12.22;35.32
4022;BME280;2025;48.260;16.432;2023-04-27T08:53:17;100272.44;;;12.42;33.76
4022;BME280;2025;48.260;16.432;2023-04-27T08:55:44;100280.50;;;11.67;34.44
4022;BME280;2025;48.260;16.432;2023-04-27T08:58:11;100279.03;;;11.81;35.45
4022;BME280;2025;48.260;16.432;2023-04-27T09:00:38;100280.72;;;12.07;35.33
4022;BME280;2025;48.260;16.432;2023-04-27T09:03:06;100277.94;;;12.08;35.54
4022;BME280;2025;48.260;16.432;2023-04-27T09:05:33;100275.44;;;12.15;39.23
4022;BME280;2025;48.260;16.432;2023-04-27T09:08:02;100274.22;;;12.50;35.62
4022;BME280;2025;48.260;16.432;2023-04-27T09:10:44;100277.50;;;12.69;37.17
4022;BME280;2025;48.260;16.432;2023-04-27T09:13:11;100268.13;;;12.97;39.76
4022;BME280;2025;48.260;16.432;2023-04-27T09:15:42;100262.22;;;12.87;36.92
4022;BME280;2025;48.260;16.432;2023-04-27T09:18:18;100264.97;;;12.54;36.55
4022;BME280;2025;48.260;16.432;2023-04-27T09:20:47;100267.75;;;13.00;33.46
4022;BME280;2025;48.260;16.432;2023-04-27T09:23:27;100275.75;;;13.23;33.20
4022;BME280;2025;48.260;16.432;2023-04-27T09:25:56;100269.13;;;13.36;32.68
4022;BME280;2025;48.260;16.432;2023-04-27T09:28:24;100276.03;;;13.05;37.51
4022;BME280;2025;48.260;16.432;2023-04-27T09:30:53;100270.47;;;13.23;35.05
4022;BME280;2025;48.260;16.432;2023-04-27T09:33:24;100269.56;;;13.39;35.89
4022;BME280;2025;48.260;16.432;2023-04-27T09:35:51;100265.03;;;13.17;36.33
4022;BME280;2025;48.260;16.432;2023-04-27T09:38:19;100267.66;;;12.94;35.31
4022;BME280;2025;48.260;16.432;2023-04-27T09:40:46;100269.13;;;12.96;35.87
4022;BME280;2025;48.260;16.432;2023-04-27T09:43:15;100265.13;;;13.00;37.31
4022;BME280;2025;48.260;16.432;2023-04-27T09:45:42;100259.56;;;13.26;33.56
4022;BME280;2025;48.260;16.432;2023-04-27T09:48:10;100260.44;;;13.50;37.21
4022;BME280;2025;48.260;16.432;2023-04-27T09:50:39;100257.81;;;13.42;33.41
4022;BME280;2025;48.260;16.432;2023-04-27T09:53:07;100257.78;;;13.73;32.48
4022;BME280;2025;48.260;16.432;2023-04-27T09:55:39;100252.69;;;13.63;40.67
4022;BME280;2025;48.260;16.432;2023-04-27T09:58:29;100243.63;;;14.19;39.17
4022;BME280;2025;48.260;16.432;2023-04-27T10:01:07;100243.09;;;14.38;37.94
4022;BME280;2025;48.260;16.432;2023-04-27T10:03:44;100235.16;;;14.68;35.34
4022;BME280;2025;48.260;16.432;2023-04-27T10:06:24;100231.41;;;14.92;36.09
4022;BME280;2025;48.260;16.432;2023-04-27T10:08:56;100234.03;;;15.07;33.37
4022;BME280;2025;48.260;16.432;2023-04-27T10:11:36;100231.22;;;15.30;33.97
4022;BME280;2025;48.260;16.432;2023-04-27T10:14:07;100229.84;;;15.55;30.49
4022;BME280;2025;48.260;16.432;2023-04-27T10:16:39;100237.28;;;15.45;30.13
4022;BME280;2025;48.260;16.432;2023-04-27T10:19:09;100239.44;;;15.56;29.99
4022;BME280;2025;48.260;16.432;2023-04-27T10:21:36;100219.72;;;15.08;28.96
4022;BME280;2025;48.260;16.432;2023-04-27T10:24:06;100219.06;;;14.99;31.24
4022;BME280;2025;48.260;16.432;2023-04-27T10:26:34;100222.91;;;14.82;31.56
4022;BME280;2025;48.260;16.432;2023-04-27T10:29:06;100216.31;;;14.92;34.13
4022;BME280;2025;48.260;16.432;2023-04-27T10:31:34;100217.03;;;15.01;31.65
4022;BME280;2025;48.260;16.432;2023-04-27T10:34:08;100215.28;;;15.08;34.20
4022;BME280;2025;48.260;16.432;2023-04-27T10:36:35;100206.75;;;15.13;30.08
4022;BME280;2025;48.260;16.432;2023-04-27T10:39:11;100208.88;;;15.03;30.18
4022;BME280;2025;48.260;16.432;2023-04-27T10:41:48;100215.03;;;14.88;29.57
4022;BME280;2025;48.260;16.432;2023-04-27T10:44:20;100212.13;;;14.68;29.12
4022;BME280;2025;48.260;16.432;2023-04-27T10:46:51;100208.47;;;14.40;31.11
4022;BME280;2025;48.260;16.432;2023-04-27T10:49:18;100201.53;;;14.53;32.15
4022;BME280;2025;48.260;16.432;2023-04-27T10:51:46;100198.69;;;14.70;34.66
4022;BME280;2025;48.260;16.432;2023-04-27T10:54:29;100207.38;;;14.49;35.24
4022;BME280;2025;48.260;16.432;2023-04-27T10:57:03;100197.50;;;14.87;34.44
4022;BME280;2025;48.260;16.432;2023-04-27T10:59:52;100196.25;;;15.05;29.96
4022;BME280;2025;48.260;16.432;2023-04-27T11:02:26;100200.59;;;15.12;30.43
4022;BME280;2025;48.260;16.432;2023-04-27T11:04:54;100202.19;;;15.07;29.83
4022;BME280;2025;48.260;16.432;2023-04-27T11:07:25;100200.91;;;14.37;31.16
4022;BME280;2025;48.260;16.432;2023-04-27T11:09:52;100206.47;;;14.42;32.15
4022;BME280;2025;48.260;16.432;2023-04-27T11:12:20;100205.78;;;13.80;32.14
4022;BME280;2025;48.260;16.432;2023-04-27T11:14:49;100204.66;;;13.52;32.26
4022;BME280;2025;48.260;16.432;2023-04-27T11:17:28;100204.38;;;13.84;34.63
4022;BME280;2025;48.260;16.432;2023-04-27T11:19:55;100195.56;;;13.92;31.35
4022;BME280;2025;48.260;16.432;2023-04-27T11:22:22;100199.50;;;14.11;33.17
4022;BME280;2025;48.260;16.432;2023-04-27T11:24:49;100202.81;;;14.13;33.78
4022;BME280;2025;48.260;16.432;2023-04-27T11:27:17;100204.84;;;14.41;35.50
4022;BME280;2025;48.260;16.432;2023-04-27T11:29:46;100195.31;;;14.76;29.75
4022;BME280;2025;48.260;16.432;2023-04-27T11:32:21;100198.72;;;15.06;30.62
4022;BME280;2025;48.260;16.432;2023-04-27T11:34:49;100197.47;;;15.24;30.01
4022;BME280;2025;48.260;16.432;2023-04-27T11:37:20;100193.34;;;15.64;29.35
4022;BME280;2025;48.260;16.432;2023-04-27T11:39:50;100197.06;;;15.91;28.68
4022;BME280;2025;48.260;16.432;2023-04-27T11:42:18;100199.53;;;15.93;32.38
4022;BME280;2025;48.260;16.432;2023-04-27T11:44:51;100190.75;;;15.92;31.42
4022;BME280;2025;48.260;16.432;2023-04-27T11:47:19;100189.66;;;16.50;28.84
4022;BME280;2025;48.260;16.432;2023-04-27T11:49:49;100187.31;;;16.75;27.43
4022;BME280;2025;48.260;16.432;2023-04-27T11:52:17;100187.53;;;16.38;27.63
4022;BME280;2025;48.260;16.432;2023-04-27T11:54:48;100189.06;;;16.54;27.72
4022;BME280;2025;48.260;16.432;2023-04-27T11:57:15;100194.09;;;16.42;28.33
4022;BME280;2025;48.260;16.432;2023-04-27T11:59:42;100175.44;;;16.29;28.17
4022;BME280;2025;48.260;16.432;2023-04-27T12:02:09;100183.25;;;16.37;27.87
4022;BME280;2025;48.260;16.432;2023-04-27T12:04:36;100175.97;;;16.59;28.08
4022;BME280;2025;48.260;16.432;2023-04-27T12:07:04;100176.75;;;16.88;28.59
4022;BME280;2025;48.260;16.432;2023-04-27T12:09:31;100173.25;;;16.88;29.42
4022;BME280;2025;48.260;16.432;2023-04-27T12:11:58;100171.22;;;16.96;27.53
4022;BME280;2025;48.260;16.432;2023-04-27T12:14:27;100176.41;;;16.63;28.67
4022;BME280;2025;48.260;16.432;2023-04-27T12:16:53;100171.63;;;16.87;27.63
4022;BME280;2025;48.260;16.432;2023-04-27T12:19:20;100165.72;;;16.98;28.06
4022;BME280;2025;48.260;16.432;2023-04-27T12:21:50;100170.50;;;17.49;29.72
4022;BME280;2025;48.260;16.432;2023-04-27T12:24:18;100161.28;;;17.58;26.47
4022;BME280;2025;48.260;16.432;2023-04-27T12:26:45;100160.44;;;17.78;27.20
4022;BME280;2025;48.260;16.432;2023-04-27T12:29:13;100153.25;;;18.18;29.02
4022;BME280;2025;48.260;16.432;2023-04-27T12:31:39;100147.47;;;18.73;30.54
4022;BME280;2025;48.260;16.432;2023-04-27T12:34:07;100143.78;;;18.74;30.85
4022;BME280;2025;48.260;16.432;2023-04-27T12:36:33;100152.09;;;18.46;28.41
4022;BME280;2025;48.260;16.432;2023-04-27T12:39:12;100146.81;;;18.39;28.27
4022;BME280;2025;48.260;16.432;2023-04-27T12:41:40;100136.09;;;18.46;25.45
4022;BME280;2025;48.260;16.432;2023-04-27T12:44:07;100145.03;;;18.13;27.13
4022;BME280;2025;48.260;16.432;2023-04-27T12:46:34;100138.63;;;18.34;26.53
4022;BME280;2025;48.260;16.432;2023-04-27T12:49:01;100139.47;;;18.28;28.01
4022;BME280;2025;48.260;16.432;2023-04-27T12:51:28;100135.25;;;17.94;25.93
4022;BME280;2025;48.260;16.432;2023-04-27T12:53:55;100136.91;;;17.35;26.00
4022;BME280;2025;48.260;16.432;2023-04-27T12:56:22;100130.94;;;17.19;26.13
4022;BME280;2025;48.260;16.432;2023-04-27T12:58:50;100145.22;;;16.92;32.41
4022;BME280;2025;48.260;16.432;2023-04-27T13:01:17;100133.44;;;17.27;33.51
4022;BME280;2025;48.260;16.432;2023-04-27T13:03:46;100125.81;;;17.78;27.71
4022;BME280;2025;48.260;16.432;2023-04-27T13:06:13;100131.09;;;18.18;25.12
4022;BME280;2025;48.260;16.432;2023-04-27T13:08:40;100138.69;;;18.14;25.33
4022;BME280;2025;48.260;16.432;2023-04-27T13:11:07;100130.75;;;17.87;24.36